sensor_id;sensor_type;location;lat;lon;timestamp;P1;durP1;ratioP1;P2;durP2;ratioP2
10687;SDS011;5392;42.688;23.298;2023-05-17T00:00:14;33.70;;;27.45;;
10687;SDS011;5392;42.688;23.298;2023-05-17T00:02:41;38.45;;;26.23;;
10687;SDS011;5392;42.688;23.298;2023-05-17T00:05:08;29.48;;;26.33;;
10687;SDS011;5392;42.688;23.298;2023-05-17T00:07:36;38.03;;;29.02;;
10687;SDS011;5392;42.688;23.298;2023-05-17T00:10:03;36.58;;;28.42;;
10687;SDS011;5392;42.688;23.298;2023-05-17T00:12:30;36.88;;;29.98;;
10687;SDS011;5392;42.688;23.298;2023-05-17T00:14:57;37.50;;;31.13;;
10687;SDS011;5392;42.688;23.298;2023-05-17T00:17:24;40.55;;;32.22;;
10687;SDS011;5392;42.688;23.298;2023-05-17T00:19:51;40.70;;;32.03;;
10687;SDS011;5392;42.688;23.298;2023-05-17T00:22:18;40.83;;;32.30;;
10687;SDS011;5392;42.688;23.298;2023-05-17T00:24:44;43.22;;;32.72;;
10687;SDS011;5392;42.688;23.298;2023-05-17T00:27:11;39.63;;;32.03;;
10687;SDS011;5392;42.688;23.298;2023-05-17T00:29:38;40.40;;;32.65;;
10687;SDS011;5392;42.688;23.298;2023-05-17T00:32:04;39.88;;;32.35;;
10687;SDS011;5392;42.688;23.298;2023-05-17T00:34:31;39.85;;;34.22;;
10687;SDS011;5392;42.688;23.298;2023-05-17T00:36:58;41.22;;;34.03;;
10687;SDS011;5392;42.688;23.298;2023-05-17T00:39:25;39.47;;;31.80;;
10687;SDS011;5392;42.688;23.298;2023-05-17T00:41:51;41.15;;;31.85;;
10687;SDS011;5392;42.688;23.298;2023-05-17T00:44:19;35.45;;;29.13;;
10687;SDS011;5392;42.688;23.298;2023-05-17T00:46:45;38.47;;;32.78;;
10687;SDS011;5392;42.688;23.298;2023-05-17T00:49:12;39.33;;;32.80;;
10687;SDS011;5392;42.688;23.298;2023-05-17T00:51:39;40.83;;;35.13;;
10687;SDS011;5392;42.688;23.298;2023-05-17T00:54:06;43.72;;;36.03;;
10687;SDS011;5392;42.688;23.298;2023-05-17T00:56:32;44.03;;;35.00;;
10687;SDS011;5392;42.688;23.298;2023-05-17T00:58:59;36.15;;;29.95;;
10687;SDS011;5392;42.688;23.298;2023-05-17T01:01:27;39.38;;;31.10;;
10687;SDS011;5392;42.688;23.298;2023-05-17T01:03:55;36.22;;;29.85;;
10687;SDS011;5392;42.688;23.298;2023-05-17T01:06:22;32.60;;;29.10;;
10687;SDS011;5392;42.688;23.298;2023-05-17T01:08:49;34.53;;;27.70;;
10687;SDS011;5392;42.688;23.298;2023-05-17T01:13:55;32.75;;;24.55;;
10687;SDS011;5392;42.688;23.298;2023-05-17T01:16:32;24.55;;;21.95;;
10687;SDS011;5392;42.688;23.298;2023-05-17T01:21:56;33.80;;;23.73;;
10687;SDS011;5392;42.688;23.298;2023-05-17T01:27:30;24.35;;;21.77;;
10687;SDS011;5392;42.688;23.298;2023-05-17T01:29:57;27.13;;;22.17;;
10687;SDS011;5392;42.688;23.298;2023-05-17T01:32:26;28.98;;;20.92;;
10687;SDS011;5392;42.688;23.298;2023-05-17T01:34:55;26.88;;;20.67;;
10687;SDS011;5392;42.688;23.298;2023-05-17T01:37:22;24.42;;;21.05;;
10687;SDS011;5392;42.688;23.298;2023-05-17T01:39:48;21.90;;;19.60;;
10687;SDS011;5392;42.688;23.298;2023-05-17T01:42:33;27.30;;;20.58;;
10687;SDS011;5392;42.688;23.298;2023-05-17T01:45:06;25.58;;;19.50;;
10687;SDS011;5392;42.688;23.298;2023-05-17T01:50:29;25.27;;;20.98;;
10687;SDS011;5392;42.688;23.298;2023-05-17T01:53:01;25.50;;;21.25;;
10687;SDS011;5392;42.688;23.298;2023-05-17T01:55:42;26.08;;;21.10;;
10687;SDS011;5392;42.688;23.298;2023-05-17T01:58:11;25.45;;;21.48;;
10687;SDS011;5392;42.688;23.298;2023-05-17T02:00:40;23.70;;;19.55;;
10687;SDS011;5392;42.688;23.298;2023-05-17T02:03:15;26.38;;;19.52;;
10687;SDS011;5392;42.688;23.298;2023-05-17T02:05:45;25.92;;;19.77;;
10687;SDS011;5392;42.688;23.298;2023-05-17T02:08:12;25.02;;;20.27;;
10687;SDS011;5392;42.688;23.298;2023-05-17T02:10:39;27.58;;;21.15;;
10687;SDS011;5392;42.688;23.298;2023-05-17T02:13:06;24.17;;;20.42;;
10687;SDS011;5392;42.688;23.298;2023-05-17T02:15:33;21.58;;;19.35;;
10687;SDS011;5392;42.688;23.298;2023-05-17T02:18:00;27.77;;;20.70;;
10687;SDS011;5392;42.688;23.298;2023-05-17T02:20:26;25.60;;;17.92;;
10687;SDS011;5392;42.688;23.298;2023-05-17T02:22:53;23.63;;;18.02;;
10687;SDS011;5392;42.688;23.298;2023-05-17T02:25:20;26.90;;;17.92;;
10687;SDS011;5392;42.688;23.298;2023-05-17T02:27:47;25.27;;;16.50;;
10687;SDS011;5392;42.688;23.298;2023-05-17T02:30:13;23.42;;;18.05;;
10687;SDS011;5392;42.688;23.298;2023-05-17T02:32:43;28.63;;;19.08;;
10687;SDS011;5392;42.688;23.298;2023-05-17T02:35:10;25.38;;;18.63;;
10687;SDS011;5392;42.688;23.298;2023-05-17T02:37:37;25.80;;;19.80;;
10687;SDS011;5392;42.688;23.298;2023-05-17T02:40:04;28.88;;;19.70;;
10687;SDS011;5392;42.688;23.298;2023-05-17T02:42:35;29.30;;;19.45;;
10687;SDS011;5392;42.688;23.298;2023-05-17T02:45:02;31.05;;;17.98;;
10687;SDS011;5392;42.688;23.298;2023-05-17T02:47:29;26.52;;;16.95;;
10687;SDS011;5392;42.688;23.298;2023-05-17T02:49:56;23.17;;;17.40;;
10687;SDS011;5392;42.688;23.298;2023-05-17T02:52:23;28.65;;;17.80;;
10687;SDS011;5392;42.688;23.298;2023-05-17T02:54:50;25.52;;;18.02;;
10687;SDS011;5392;42.688;23.298;2023-05-17T02:57:17;23.98;;;18.38;;
10687;SDS011;5392;42.688;23.298;2023-05-17T02:59:44;25.35;;;19.30;;
10687;SDS011;5392;42.688;23.298;2023-05-17T03:02:11;22.92;;;17.55;;
10687;SDS011;5392;42.688;23.298;2023-05-17T03:04:38;20.90;;;18.52;;
10687;SDS011;5392;42.688;23.298;2023-05-17T03:07:05;24.80;;;18.67;;
10687;SDS011;5392;42.688;23.298;2023-05-17T03:09:32;25.00;;;18.27;;
10687;SDS011;5392;42.688;23.298;2023-05-17T03:11:59;21.67;;;19.10;;
10687;SDS011;5392;42.688;23.298;2023-05-17T03:14:26;29.88;;;19.85;;
10687;SDS011;5392;42.688;23.298;2023-05-17T03:16:53;20.00;;;17.90;;
10687;SDS011;5392;42.688;23.298;2023-05-17T03:19:20;23.15;;;14.25;;
10687;SDS011;5392;42.688;23.298;2023-05-17T03:21:46;20.25;;;14.00;;
10687;SDS011;5392;42.688;23.298;2023-05-17T03:24:13;19.40;;;14.38;;
10687;SDS011;5392;42.688;23.298;2023-05-17T03:26:40;24.80;;;14.13;;
10687;SDS011;5392;42.688;23.298;2023-05-17T03:29:06;22.98;;;15.00;;
10687;SDS011;5392;42.688;23.298;2023-05-17T03:31:33;25.85;;;16.58;;
10687;SDS011;5392;42.688;23.298;2023-05-17T03:34:00;20.20;;;15.07;;
10687;SDS011;5392;42.688;23.298;2023-05-17T03:36:27;18.92;;;13.82;;
10687;SDS011;5392;42.688;23.298;2023-05-17T03:38:54;18.58;;;13.75;;
10687;SDS011;5392;42.688;23.298;2023-05-17T03:41:21;19.45;;;15.05;;
10687;SDS011;5392;42.688;23.298;2023-05-17T03:43:48;22.48;;;14.50;;
10687;SDS011;5392;42.688;23.298;2023-05-17T03:46:15;21.25;;;15.30;;
10687;SDS011;5392;42.688;23.298;2023-05-17T03:48:42;21.27;;;13.80;;
10687;SDS011;5392;42.688;23.298;2023-05-17T03:51:09;16.90;;;13.45;;
10687;SDS011;5392;42.688;23.298;2023-05-17T03:53:35;15.32;;;12.65;;
10687;SDS011;5392;42.688;23.298;2023-05-17T03:56:06;19.40;;;12.90;;
10687;SDS011;5392;42.688;23.298;2023-05-17T03:58:33;19.40;;;13.45;;
10687;SDS011;5392;42.688;23.298;2023-05-17T04:01:00;23.77;;;14.02;;
10687;SDS011;5392;42.688;23.298;2023-05-17T04:03:26;20.58;;;13.38;;
10687;SDS011;5392;42.688;23.298;2023-05-17T04:05:57;20.08;;;12.40;;
10687;SDS011;5392;42.688;23.298;2023-05-17T04:08:26;25.85;;;12.18;;
10687;SDS011;5392;42.688;23.298;2023-05-17T04:10:53;18.13;;;11.65;;
10687;SDS011;5392;42.688;23.298;2023-05-17T04:13:20;17.10;;;11.27;;
10687;SDS011;5392;42.688;23.298;2023-05-17T04:15:46;16.13;;;11.57;;
10687;SDS011;5392;42.688;23.298;2023-05-17T04:18:13;14.82;;;10.35;;
10687;SDS011;5392;42.688;23.298;2023-05-17T04:20:40;14.23;;;10.43;;
10687;SDS011;5392;42.688;23.298;2023-05-17T04:23:07;14.27;;;10.20;;
10687;SDS011;5392;42.688;23.298;2023-05-17T04:25:34;20.20;;;11.10;;
10687;SDS011;5392;42.688;23.298;2023-05-17T04:28:00;12.57;;;9.52;;
10687;SDS011;5392;42.688;23.298;2023-05-17T04:30:27;13.15;;;10.98;;
10687;SDS011;5392;42.688;23.298;2023-05-17T04:32:53;14.43;;;11.68;;
10687;SDS011;5392;42.688;23.298;2023-05-17T04:35:20;15.98;;;11.95;;
10687;SDS011;5392;42.688;23.298;2023-05-17T04:37:47;15.70;;;12.02;;
10687;SDS011;5392;42.688;23.298;2023-05-17T04:40:14;14.00;;;11.15;;
10687;SDS011;5392;42.688;23.298;2023-05-17T04:42:41;13.95;;;11.52;;
10687;SDS011;5392;42.688;23.298;2023-05-17T04:45:07;17.67;;;11.73;;
10687;SDS011;5392;42.688;23.298;2023-05-17T04:47:34;13.55;;;11.93;;
10687;SDS011;5392;42.688;23.298;2023-05-17T04:50:02;19.52;;;10.35;;
10687;SDS011;5392;42.688;23.298;2023-05-17T04:52:30;16.58;;;11.57;;
10687;SDS011;5392;42.688;23.298;2023-05-17T04:54:57;12.73;;;10.55;;
10687;SDS011;5392;42.688;23.298;2023-05-17T04:57:24;16.65;;;12.30;;
10687;SDS011;5392;42.688;23.298;2023-05-17T04:59:50;12.27;;;11.00;;
10687;SDS011;5392;42.688;23.298;2023-05-17T05:02:17;14.10;;;11.80;;
10687;SDS011;5392;42.688;23.298;2023-05-17T05:04:44;12.02;;;9.95;;
10687;SDS011;5392;42.688;23.298;2023-05-17T05:07:11;21.40;;;11.48;;
10687;SDS011;5392;42.688;23.298;2023-05-17T05:09:38;14.20;;;10.45;;
10687;SDS011;5392;42.688;23.298;2023-05-17T05:12:04;13.70;;;11.25;;
10687;SDS011;5392;42.688;23.298;2023-05-17T05:14:31;13.77;;;10.73;;
10687;SDS011;5392;42.688;23.298;2023-05-17T05:16:58;12.57;;;10.38;;
10687;SDS011;5392;42.688;23.298;2023-05-17T05:19:25;15.40;;;9.57;;
10687;SDS011;5392;42.688;23.298;2023-05-17T05:21:51;13.60;;;10.07;;
10687;SDS011;5392;42.688;23.298;2023-05-17T05:24:18;18.20;;;10.63;;
10687;SDS011;5392;42.688;23.298;2023-05-17T05:26:45;15.48;;;10.75;;
10687;SDS011;5392;42.688;23.298;2023-05-17T05:29:12;14.68;;;11.60;;
10687;SDS011;5392;42.688;23.298;2023-05-17T05:31:39;11.93;;;9.82;;
10687;SDS011;5392;42.688;23.298;2023-05-17T05:34:05;10.32;;;9.23;;
10687;SDS011;5392;42.688;23.298;2023-05-17T05:36:32;13.32;;;9.20;;
10687;SDS011;5392;42.688;23.298;2023-05-17T05:38:59;19.25;;;10.93;;
10687;SDS011;5392;42.688;23.298;2023-05-17T05:41:26;12.20;;;8.85;;
10687;SDS011;5392;42.688;23.298;2023-05-17T05:43:53;17.55;;;10.43;;
10687;SDS011;5392;42.688;23.298;2023-05-17T05:46:20;12.27;;;9.13;;
10687;SDS011;5392;42.688;23.298;2023-05-17T05:48:47;16.48;;;9.75;;
10687;SDS011;5392;42.688;23.298;2023-05-17T05:51:14;13.13;;;9.95;;
10687;SDS011;5392;42.688;23.298;2023-05-17T05:53:41;17.50;;;8.98;;
10687;SDS011;5392;42.688;23.298;2023-05-17T05:56:07;11.13;;;7.63;;
10687;SDS011;5392;42.688;23.298;2023-05-17T05:58:34;11.20;;;8.23;;
10687;SDS011;5392;42.688;23.298;2023-05-17T06:01:02;9.55;;;7.57;;
10687;SDS011;5392;42.688;23.298;2023-05-17T06:03:31;13.35;;;7.85;;
10687;SDS011;5392;42.688;23.298;2023-05-17T06:05:58;16.60;;;8.82;;
10687;SDS011;5392;42.688;23.298;2023-05-17T06:08:25;13.73;;;7.65;;
10687;SDS011;5392;42.688;23.298;2023-05-17T06:10:52;13.10;;;7.38;;
10687;SDS011;5392;42.688;23.298;2023-05-17T06:13:19;10.10;;;7.72;;
10687;SDS011;5392;42.688;23.298;2023-05-17T06:15:45;8.63;;;7.72;;
10687;SDS011;5392;42.688;23.298;2023-05-17T06:18:12;12.43;;;8.45;;
10687;SDS011;5392;42.688;23.298;2023-05-17T06:20:39;14.30;;;8.20;;
10687;SDS011;5392;42.688;23.298;2023-05-17T06:23:06;9.73;;;7.72;;
10687;SDS011;5392;42.688;23.298;2023-05-17T06:25:32;13.23;;;8.30;;
10687;SDS011;5392;42.688;23.298;2023-05-17T06:27:59;11.02;;;8.00;;
10687;SDS011;5392;42.688;23.298;2023-05-17T06:30:28;10.40;;;6.85;;
10687;SDS011;5392;42.688;23.298;2023-05-17T06:32:56;11.25;;;6.70;;
10687;SDS011;5392;42.688;23.298;2023-05-17T06:35:23;8.73;;;6.40;;
10687;SDS011;5392;42.688;23.298;2023-05-17T06:37:49;11.13;;;6.38;;
10687;SDS011;5392;42.688;23.298;2023-05-17T06:40:16;10.52;;;6.03;;
10687;SDS011;5392;42.688;23.298;2023-05-17T06:42:43;10.20;;;5.30;;
10687;SDS011;5392;42.688;23.298;2023-05-17T06:45:10;6.10;;;5.15;;
10687;SDS011;5392;42.688;23.298;2023-05-17T06:47:38;8.85;;;4.93;;
10687;SDS011;5392;42.688;23.298;2023-05-17T06:50:05;9.80;;;5.35;;
10687;SDS011;5392;42.688;23.298;2023-05-17T06:52:32;8.85;;;5.90;;
10687;SDS011;5392;42.688;23.298;2023-05-17T06:54:59;8.32;;;5.43;;
10687;SDS011;5392;42.688;23.298;2023-05-17T06:57:26;5.22;;;4.28;;
10687;SDS011;5392;42.688;23.298;2023-05-17T06:59:53;5.63;;;4.95;;
10687;SDS011;5392;42.688;23.298;2023-05-17T07:02:19;9.82;;;6.10;;
10687;SDS011;5392;42.688;23.298;2023-05-17T07:04:46;6.90;;;5.40;;
10687;SDS011;5392;42.688;23.298;2023-05-17T07:07:15;8.43;;;6.65;;
10687;SDS011;5392;42.688;23.298;2023-05-17T07:09:43;5.00;;;4.50;;
10687;SDS011;5392;42.688;23.298;2023-05-17T07:12:09;9.10;;;6.82;;
10687;SDS011;5392;42.688;23.298;2023-05-17T07:14:36;5.75;;;4.85;;
10687;SDS011;5392;42.688;23.298;2023-05-17T07:17:03;11.32;;;6.93;;
10687;SDS011;5392;42.688;23.298;2023-05-17T07:19:30;7.45;;;6.18;;
10687;SDS011;5392;42.688;23.298;2023-05-17T07:21:56;7.28;;;6.00;;
10687;SDS011;5392;42.688;23.298;2023-05-17T07:24:23;9.57;;;5.80;;
10687;SDS011;5392;42.688;23.298;2023-05-17T07:26:50;10.40;;;6.25;;
10687;SDS011;5392;42.688;23.298;2023-05-17T07:29:18;11.68;;;6.18;;
10687;SDS011;5392;42.688;23.298;2023-05-17T07:31:44;11.52;;;5.82;;
10687;SDS011;5392;42.688;23.298;2023-05-17T07:34:12;4.80;;;4.40;;
10687;SDS011;5392;42.688;23.298;2023-05-17T07:36:39;11.95;;;6.30;;
10687;SDS011;5392;42.688;23.298;2023-05-17T07:39:06;11.70;;;5.95;;
10687;SDS011;5392;42.688;23.298;2023-05-17T07:41:33;12.57;;;6.10;;
10687;SDS011;5392;42.688;23.298;2023-05-17T07:44:01;10.10;;;6.18;;
10687;SDS011;5392;42.688;23.298;2023-05-17T07:46:29;7.20;;;5.53;;
10687;SDS011;5392;42.688;23.298;2023-05-17T07:48:55;9.20;;;6.38;;
10687;SDS011;5392;42.688;23.298;2023-05-17T07:51:24;7.38;;;5.85;;
10687;SDS011;5392;42.688;23.298;2023-05-17T07:53:50;10.88;;;6.68;;
10687;SDS011;5392;42.688;23.298;2023-05-17T07:56:17;8.52;;;5.72;;
10687;SDS011;5392;42.688;23.298;2023-05-17T07:58:44;9.75;;;5.10;;
10687;SDS011;5392;42.688;23.298;2023-05-17T08:01:11;7.35;;;5.20;;
10687;SDS011;5392;42.688;23.298;2023-05-17T08:03:37;10.40;;;6.30;;
10687;SDS011;5392;42.688;23.298;2023-05-17T08:06:04;10.93;;;6.97;;
10687;SDS011;5392;42.688;23.298;2023-05-17T08:08:31;12.00;;;6.75;;
10687;SDS011;5392;42.688;23.298;2023-05-17T08:10:58;7.90;;;5.53;;
10687;SDS011;5392;42.688;23.298;2023-05-17T08:13:24;10.55;;;6.53;;
10687;SDS011;5392;42.688;23.298;2023-05-17T08:15:51;7.43;;;5.53;;
10687;SDS011;5392;42.688;23.298;2023-05-17T08:18:26;10.38;;;5.90;;
10687;SDS011;5392;42.688;23.298;2023-05-17T08:20:54;14.13;;;7.25;;
10687;SDS011;5392;42.688;23.298;2023-05-17T08:23:20;8.18;;;6.45;;
10687;SDS011;5392;42.688;23.298;2023-05-17T08:25:47;10.88;;;6.57;;
10687;SDS011;5392;42.688;23.298;2023-05-17T08:28:14;8.63;;;6.13;;
10687;SDS011;5392;42.688;23.298;2023-05-17T08:30:41;9.82;;;7.13;;
10687;SDS011;5392;42.688;23.298;2023-05-17T08:33:10;11.25;;;7.32;;
10687;SDS011;5392;42.688;23.298;2023-05-17T08:35:37;8.70;;;7.10;;
10687;SDS011;5392;42.688;23.298;2023-05-17T08:38:04;10.57;;;8.00;;
10687;SDS011;5392;42.688;23.298;2023-05-17T08:40:30;12.52;;;7.85;;
10687;SDS011;5392;42.688;23.298;2023-05-17T08:42:58;8.73;;;6.50;;
10687;SDS011;5392;42.688;23.298;2023-05-17T08:45:25;14.27;;;8.57;;
10687;SDS011;5392;42.688;23.298;2023-05-17T08:47:54;11.55;;;8.40;;
10687;SDS011;5392;42.688;23.298;2023-05-17T08:50:21;9.73;;;6.30;;
10687;SDS011;5392;42.688;23.298;2023-05-17T08:52:49;13.15;;;7.95;;
10687;SDS011;5392;42.688;23.298;2023-05-17T08:55:16;14.52;;;7.60;;
10687;SDS011;5392;42.688;23.298;2023-05-17T08:57:43;11.00;;;6.07;;
10687;SDS011;5392;42.688;23.298;2023-05-17T09:00:10;8.95;;;6.03;;
10687;SDS011;5392;42.688;23.298;2023-05-17T09:02:40;12.20;;;6.65;;
10687;SDS011;5392;42.688;23.298;2023-05-17T09:05:08;10.55;;;6.55;;
10687;SDS011;5392;42.688;23.298;2023-05-17T09:07:36;11.57;;;6.57;;
10687;SDS011;5392;42.688;23.298;2023-05-17T09:10:02;10.68;;;5.88;;
10687;SDS011;5392;42.688;23.298;2023-05-17T09:12:31;10.70;;;6.47;;
10687;SDS011;5392;42.688;23.298;2023-05-17T09:15:16;6.10;;;4.93;;
10687;SDS011;5392;42.688;23.298;2023-05-17T09:17:54;10.75;;;7.15;;
10687;SDS011;5392;42.688;23.298;2023-05-17T09:20:22;11.77;;;9.13;;
10687;SDS011;5392;42.688;23.298;2023-05-17T09:22:51;10.68;;;8.00;;
10687;SDS011;5392;42.688;23.298;2023-05-17T09:25:18;15.68;;;8.75;;
10687;SDS011;5392;42.688;23.298;2023-05-17T09:27:46;15.57;;;9.25;;
10687;SDS011;5392;42.688;23.298;2023-05-17T09:30:13;11.07;;;8.35;;
10687;SDS011;5392;42.688;23.298;2023-05-17T09:32:43;10.55;;;6.38;;
10687;SDS011;5392;42.688;23.298;2023-05-17T09:35:14;14.23;;;8.38;;
10687;SDS011;5392;42.688;23.298;2023-05-17T09:37:41;12.73;;;7.90;;
10687;SDS011;5392;42.688;23.298;2023-05-17T09:40:08;15.52;;;7.72;;
10687;SDS011;5392;42.688;23.298;2023-05-17T09:42:35;12.70;;;6.53;;
10687;SDS011;5392;42.688;23.298;2023-05-17T09:45:04;12.85;;;8.23;;
10687;SDS011;5392;42.688;23.298;2023-05-17T09:47:31;12.25;;;7.03;;
10687;SDS011;5392;42.688;23.298;2023-05-17T09:50:01;17.95;;;7.93;;
10687;SDS011;5392;42.688;23.298;2023-05-17T09:52:30;29.33;;;8.60;;
10687;SDS011;5392;42.688;23.298;2023-05-17T09:54:58;12.82;;;6.22;;
10687;SDS011;5392;42.688;23.298;2023-05-17T09:57:26;11.50;;;5.38;;
10687;SDS011;5392;42.688;23.298;2023-05-17T09:59:54;15.35;;;6.10;;
10687;SDS011;5392;42.688;23.298;2023-05-17T10:02:26;28.77;;;8.25;;
10687;SDS011;5392;42.688;23.298;2023-05-17T10:04:55;31.10;;;6.65;;
10687;SDS011;5392;42.688;23.298;2023-05-17T10:07:24;20.55;;;7.70;;
10687;SDS011;5392;42.688;23.298;2023-05-17T10:09:52;27.33;;;7.15;;
10687;SDS011;5392;42.688;23.298;2023-05-17T10:12:21;32.85;;;6.43;;
10687;SDS011;5392;42.688;23.298;2023-05-17T10:14:51;26.05;;;5.82;;
10687;SDS011;5392;42.688;23.298;2023-05-17T10:17:21;12.27;;;5.10;;
10687;SDS011;5392;42.688;23.298;2023-05-17T10:19:52;15.88;;;4.72;;
10687;SDS011;5392;42.688;23.298;2023-05-17T10:22:20;11.95;;;4.53;;
10687;SDS011;5392;42.688;23.298;2023-05-17T10:24:49;20.40;;;4.93;;
10687;SDS011;5392;42.688;23.298;2023-05-17T10:27:17;18.30;;;3.67;;
10687;SDS011;5392;42.688;23.298;2023-05-17T10:29:46;9.02;;;2.65;;
10687;SDS011;5392;42.688;23.298;2023-05-17T10:32:16;12.80;;;4.13;;
10687;SDS011;5392;42.688;23.298;2023-05-17T10:34:48;6.40;;;2.75;;
10687;SDS011;5392;42.688;23.298;2023-05-17T10:37:35;6.85;;;3.58;;
10687;SDS011;5392;42.688;23.298;2023-05-17T10:40:02;15.95;;;4.53;;
10687;SDS011;5392;42.688;23.298;2023-05-17T10:42:29;11.20;;;4.28;;
10687;SDS011;5392;42.688;23.298;2023-05-17T10:44:58;9.77;;;3.35;;
10687;SDS011;5392;42.688;23.298;2023-05-17T10:47:32;8.32;;;4.18;;
10687;SDS011;5392;42.688;23.298;2023-05-17T10:50:00;9.43;;;3.88;;
10687;SDS011;5392;42.688;23.298;2023-05-17T10:52:27;26.38;;;5.70;;
10687;SDS011;5392;42.688;23.298;2023-05-17T10:54:53;16.17;;;4.80;;
10687;SDS011;5392;42.688;23.298;2023-05-17T10:57:40;15.52;;;5.25;;
10687;SDS011;5392;42.688;23.298;2023-05-17T11:00:20;24.27;;;3.72;;
10687;SDS011;5392;42.688;23.298;2023-05-17T11:02:47;46.40;;;7.70;;
10687;SDS011;5392;42.688;23.298;2023-05-17T11:05:22;12.25;;;4.93;;
10687;SDS011;5392;42.688;23.298;2023-05-17T11:07:51;10.38;;;4.25;;
10687;SDS011;5392;42.688;23.298;2023-05-17T11:10:18;14.77;;;4.57;;
10687;SDS011;5392;42.688;23.298;2023-05-17T11:12:45;15.30;;;5.22;;
10687;SDS011;5392;42.688;23.298;2023-05-17T11:15:23;13.10;;;4.55;;
10687;SDS011;5392;42.688;23.298;2023-05-17T11:17:53;8.32;;;4.05;;
10687;SDS011;5392;42.688;23.298;2023-05-17T11:23:00;9.48;;;3.80;;
10687;SDS011;5392;42.688;23.298;2023-05-17T11:25:35;9.93;;;4.95;;
10687;SDS011;5392;42.688;23.298;2023-05-17T11:28:07;7.40;;;3.67;;
10687;SDS011;5392;42.688;23.298;2023-05-17T11:30:37;13.60;;;5.25;;
10687;SDS011;5392;42.688;23.298;2023-05-17T11:33:06;7.38;;;3.92;;
10687;SDS011;5392;42.688;23.298;2023-05-17T11:35:51;6.68;;;4.65;;
10687;SDS011;5392;42.688;23.298;2023-05-17T11:38:26;13.32;;;5.70;;
10687;SDS011;5392;42.688;23.298;2023-05-17T11:40:55;11.57;;;4.65;;
10687;SDS011;5392;42.688;23.298;2023-05-17T11:43:24;8.93;;;5.13;;
10687;SDS011;5392;42.688;23.298;2023-05-17T11:45:57;8.88;;;4.70;;
10687;SDS011;5392;42.688;23.298;2023-05-17T11:48:28;13.27;;;5.25;;
10687;SDS011;5392;42.688;23.298;2023-05-17T11:50:55;10.27;;;4.57;;
10687;SDS011;5392;42.688;23.298;2023-05-17T11:53:24;9.60;;;5.20;;
10687;SDS011;5392;42.688;23.298;2023-05-17T11:55:52;8.85;;;5.30;;
10687;SDS011;5392;42.688;23.298;2023-05-17T11:58:22;10.20;;;4.93;;
10687;SDS011;5392;42.688;23.298;2023-05-17T12:00:53;5.47;;;3.65;;
10687;SDS011;5392;42.688;23.298;2023-05-17T12:03:31;8.68;;;5.03;;
10687;SDS011;5392;42.688;23.298;2023-05-17T12:06:03;8.45;;;5.07;;
10687;SDS011;5392;42.688;23.298;2023-05-17T12:08:38;6.25;;;4.22;;
10687;SDS011;5392;42.688;23.298;2023-05-17T12:11:10;6.72;;;3.75;;
10687;SDS011;5392;42.688;23.298;2023-05-17T12:13:40;7.30;;;5.75;;
10687;SDS011;5392;42.688;23.298;2023-05-17T12:16:13;9.80;;;1.40;;
10687;SDS011;5392;42.688;23.298;2023-05-17T12:18:47;8.10;;;5.13;;
10687;SDS011;5392;42.688;23.298;2023-05-17T12:21:16;9.77;;;5.55;;
10687;SDS011;5392;42.688;23.298;2023-05-17T12:23:44;6.63;;;4.25;;
10687;SDS011;5392;42.688;23.298;2023-05-17T12:26:16;3.88;;;2.50;;
10687;SDS011;5392;42.688;23.298;2023-05-17T12:28:54;7.65;;;4.50;;
10687;SDS011;5392;42.688;23.298;2023-05-17T12:33:54;11.10;;;4.38;;
10687;SDS011;5392;42.688;23.298;2023-05-17T12:36:21;11.55;;;4.20;;
10687;SDS011;5392;42.688;23.298;2023-05-17T12:38:48;8.93;;;4.75;;
10687;SDS011;5392;42.688;23.298;2023-05-17T12:41:15;13.23;;;5.05;;
10687;SDS011;5392;42.688;23.298;2023-05-17T12:43:43;7.55;;;5.20;;
10687;SDS011;5392;42.688;23.298;2023-05-17T12:46:12;11.65;;;4.47;;
10687;SDS011;5392;42.688;23.298;2023-05-17T12:48:44;9.40;;;5.90;;
10687;SDS011;5392;42.688;23.298;2023-05-17T12:51:13;10.00;;;5.03;;
10687;SDS011;5392;42.688;23.298;2023-05-17T12:56:18;8.48;;;5.60;;
10687;SDS011;5392;42.688;23.298;2023-05-17T13:01:36;13.52;;;6.32;;
10687;SDS011;5392;42.688;23.298;2023-05-17T13:04:05;9.98;;;5.20;;
10687;SDS011;5392;42.688;23.298;2023-05-17T13:09:19;7.57;;;4.90;;
10687;SDS011;5392;42.688;23.298;2023-05-17T13:11:49;9.82;;;5.03;;
10687;SDS011;5392;42.688;23.298;2023-05-17T13:14:33;7.55;;;4.90;;
10687;SDS011;5392;42.688;23.298;2023-05-17T13:17:16;7.13;;;3.13;;
10687;SDS011;5392;42.688;23.298;2023-05-17T13:19:50;7.13;;;4.75;;
10687;SDS011;5392;42.688;23.298;2023-05-17T13:22:17;8.95;;;5.32;;
10687;SDS011;5392;42.688;23.298;2023-05-17T13:24:44;8.13;;;3.92;;
10687;SDS011;5392;42.688;23.298;2023-05-17T13:27:11;11.68;;;5.93;;
10687;SDS011;5392;42.688;23.298;2023-05-17T13:29:39;10.48;;;5.38;;
10687;SDS011;5392;42.688;23.298;2023-05-17T13:32:08;8.85;;;4.68;;
10687;SDS011;5392;42.688;23.298;2023-05-17T13:34:36;8.05;;;4.20;;
10687;SDS011;5392;42.688;23.298;2023-05-17T13:37:04;6.55;;;4.38;;
10687;SDS011;5392;42.688;23.298;2023-05-17T13:39:35;11.40;;;4.80;;
10687;SDS011;5392;42.688;23.298;2023-05-17T13:42:02;17.48;;;4.72;;
10687;SDS011;5392;42.688;23.298;2023-05-17T13:44:29;8.52;;;4.03;;
10687;SDS011;5392;42.688;23.298;2023-05-17T13:46:57;11.40;;;3.40;;
10687;SDS011;5392;42.688;23.298;2023-05-17T13:49:23;11.07;;;3.58;;
10687;SDS011;5392;42.688;23.298;2023-05-17T13:51:51;5.72;;;3.05;;
10687;SDS011;5392;42.688;23.298;2023-05-17T13:54:17;8.00;;;2.28;;
10687;SDS011;5392;42.688;23.298;2023-05-17T13:56:47;6.55;;;1.70;;
10687;SDS011;5392;42.688;23.298;2023-05-17T13:59:13;8.30;;;1.58;;
10687;SDS011;5392;42.688;23.298;2023-05-17T14:01:40;6.20;;;1.75;;
10687;SDS011;5392;42.688;23.298;2023-05-17T14:04:08;6.22;;;2.15;;
10687;SDS011;5392;42.688;23.298;2023-05-17T14:06:35;7.90;;;2.22;;
10687;SDS011;5392;42.688;23.298;2023-05-17T14:09:02;3.80;;;2.05;;
10687;SDS011;5392;42.688;23.298;2023-05-17T14:11:29;4.72;;;2.13;;
10687;SDS011;5392;42.688;23.298;2023-05-17T14:13:56;5.22;;;2.10;;
10687;SDS011;5392;42.688;23.298;2023-05-17T14:16:22;6.60;;;2.03;;
10687;SDS011;5392;42.688;23.298;2023-05-17T14:18:49;4.70;;;1.55;;
10687;SDS011;5392;42.688;23.298;2023-05-17T14:21:16;3.45;;;1.40;;
10687;SDS011;5392;42.688;23.298;2023-05-17T14:23:43;26.23;;;2.83;;
10687;SDS011;5392;42.688;23.298;2023-05-17T14:26:09;9.52;;;2.13;;
10687;SDS011;5392;42.688;23.298;2023-05-17T14:28:37;3.47;;;1.00;;
10687;SDS011;5392;42.688;23.298;2023-05-17T14:31:07;4.95;;;1.88;;
10687;SDS011;5392;42.688;23.298;2023-05-17T14:33:34;11.23;;;2.33;;
10687;SDS011;5392;42.688;23.298;2023-05-17T14:36:01;4.28;;;1.45;;
10687;SDS011;5392;42.688;23.298;2023-05-17T14:38:29;7.05;;;1.38;;
10687;SDS011;5392;42.688;23.298;2023-05-17T14:40:56;3.10;;;0.93;;
10687;SDS011;5392;42.688;23.298;2023-05-17T14:43:24;1.77;;;1.02;;
10687;SDS011;5392;42.688;23.298;2023-05-17T14:45:52;7.20;;;1.63;;
10687;SDS011;5392;42.688;23.298;2023-05-17T14:48:18;5.47;;;2.30;;
10687;SDS011;5392;42.688;23.298;2023-05-17T14:50:45;4.22;;;1.63;;
10687;SDS011;5392;42.688;23.298;2023-05-17T14:53:12;4.05;;;1.42;;
10687;SDS011;5392;42.688;23.298;2023-05-17T14:55:39;6.35;;;1.60;;
10687;SDS011;5392;42.688;23.298;2023-05-17T14:58:05;6.95;;;1.63;;
10687;SDS011;5392;42.688;23.298;2023-05-17T15:00:32;10.27;;;1.65;;
10687;SDS011;5392;42.688;23.298;2023-05-17T15:03:00;8.40;;;2.05;;